createdAt,value
2018-02-21T00:02:21.470Z,0.38
2018-02-21T00:04:58.605Z,0.41
2018-02-21T00:07:28.604Z,0.45
2018-02-21T00:10:00.639Z,0.20
2018-02-21T00:12:31.400Z,0.22
2018-02-21T00:15:01.095Z,0.37
2018-02-21T00:17:32.098Z,0.24
2018-02-21T00:22:32.243Z,0.06
2018-02-21T00:25:04.131Z,0.13
2018-02-21T00:27:34.344Z,-0.16
2018-02-21T00:30:06.780Z,0.01
2018-02-21T00:32:37.734Z,-0.02
2018-02-21T00:35:07.671Z,-0.01
2018-02-21T00:37:38.375Z,-0.03
2018-02-21T00:40:08.074Z,-0.23
2018-02-21T00:42:37.855Z,-0.08
2018-02-21T00:45:07.983Z,-0.11
2018-02-21T00:47:39.450Z,-0.19
2018-02-21T00:50:12.627Z,-0.17
2018-02-21T00:52:44.051Z,-0.25
2018-02-21T00:55:17.229Z,-0.29
2018-02-21T00:57:47.250Z,-0.20
2018-02-21T01:00:16.875Z,-0.29
2018-02-21T01:02:46.872Z,-0.23
2018-02-21T01:05:17.513Z,-0.25
2018-02-21T01:07:47.589Z,-0.20
2018-02-21T01:10:17.524Z,-0.38
2018-02-21T01:12:47.849Z,-0.39
2018-02-21T01:15:20.928Z,-0.41
2018-02-21T01:17:53.136Z,-0.36
2018-02-21T01:20:24.750Z,-0.59
2018-02-21T01:22:56.270Z,-0.55
2018-02-21T01:25:26.417Z,-0.68
2018-02-21T01:27:58.521Z,-0.63
2018-02-21T01:30:29.057Z,-0.63
2018-02-21T01:33:00.392Z,-0.59
2018-02-21T01:35:33.273Z,-0.66
2018-02-21T01:38:04.047Z,-0.71
2018-02-21T01:40:34.633Z,-0.66
2018-02-21T01:43:07.065Z,-0.75
2018-02-21T01:45:37.354Z,-0.85
2018-02-21T01:48:07.942Z,-0.67
2018-02-21T01:50:47.429Z,-0.78
2018-02-21T01:53:17.372Z,-0.81
2018-02-21T01:55:48.183Z,-0.74
2018-02-21T01:58:19.684Z,-0.80
2018-02-21T02:00:49.643Z,-0.77
2018-02-21T02:03:20.590Z,-0.85
2018-02-21T02:05:51.423Z,-0.76
2018-02-21T02:08:22.343Z,-0.89
2018-02-21T02:10:52.383Z,-0.83
2018-02-21T02:13:22.687Z,-0.93
2018-02-21T02:15:57.942Z,-0.95
2018-02-21T02:18:28.992Z,-1.04
2018-02-21T02:21:02.038Z,-1.18
2018-02-21T02:23:31.747Z,-0.83
2018-02-21T02:26:01.611Z,-0.84
2018-02-21T02:28:34.265Z,-1.07
2018-02-21T02:31:04.506Z,-0.93
2018-02-21T02:33:34.899Z,-1.10
2018-02-21T02:36:04.602Z,-1.07
2018-02-21T02:38:50.830Z,-1.02
2018-02-21T02:41:21.259Z,-1.18
2018-02-21T02:43:51.145Z,-1.11
2018-02-21T02:46:21.910Z,-1.14
2018-02-21T02:48:51.574Z,-1.17
2018-02-21T02:51:22.040Z,-1.40
2018-02-21T02:53:52.939Z,-1.71
2018-02-21T02:56:23.070Z,-1.42
2018-02-21T02:58:52.995Z,-1.23
2018-02-21T03:01:22.909Z,-1.28
2018-02-21T03:03:56.077Z,-1.44
2018-02-21T03:06:27.029Z,-1.28
2018-02-21T03:08:58.885Z,-1.34
2018-02-21T03:11:30.517Z,-1.37
2018-02-21T03:14:00.199Z,-1.42
2018-02-21T03:16:29.757Z,-1.48
2018-02-21T03:19:01.397Z,-2.12
2018-02-21T03:21:41.327Z,-1.55
2018-02-21T03:24:10.904Z,-1.43
2018-02-21T03:26:40.819Z,-1.47
2018-02-21T03:29:10.601Z,-1.53
2018-02-21T03:31:40.321Z,-1.52
2018-02-21T03:34:09.786Z,-1.54
2018-02-21T03:36:39.903Z,-2.06
2018-02-21T03:39:10.081Z,-1.72
2018-02-21T03:41:39.786Z,-1.58
2018-02-21T03:44:10.704Z,-1.60
2018-02-21T03:46:40.217Z,-1.89
2018-02-21T03:49:10.056Z,-1.65
2018-02-21T03:51:39.598Z,-1.70
2018-02-21T03:54:09.009Z,-1.68
2018-02-21T03:56:39.246Z,-1.72
2018-02-21T03:59:08.853Z,-1.82
2018-02-21T04:01:39.049Z,-1.74
2018-02-21T04:04:08.806Z,-1.74
2018-02-21T04:06:38.535Z,-1.82
2018-02-21T04:09:08.959Z,-1.81
2018-02-21T04:11:38.442Z,-1.79
2018-02-21T04:14:08.160Z,-1.83
2018-02-21T04:16:38.286Z,-1.83
2018-02-21T04:19:08.068Z,-1.97
2018-02-21T04:21:38.119Z,-1.84
2018-02-21T04:24:08.178Z,-1.96
2018-02-21T04:26:37.991Z,-1.89
2018-02-21T04:29:07.915Z,-1.95
2018-02-21T04:31:37.571Z,-2.14
2018-02-21T04:34:07.875Z,-2.20
2018-02-21T04:36:37.884Z,-2.03
2018-02-21T04:39:07.586Z,-2.00
2018-02-21T04:41:37.559Z,-1.97
2018-02-21T04:44:07.658Z,-1.97
2018-02-21T04:46:37.386Z,-2.25
2018-02-21T04:49:07.236Z,-1.94
2018-02-21T04:51:37.405Z,-1.99
2018-02-21T04:54:08.655Z,-1.98
2018-02-21T04:56:38.421Z,-2.02
2018-02-21T04:59:08.359Z,-2.05
2018-02-21T05:01:38.430Z,-2.06
2018-02-21T05:04:08.080Z,-2.06
2018-02-21T05:06:38.303Z,-2.00
2018-02-21T05:09:10.848Z,-2.04
2018-02-21T05:11:40.451Z,-1.99
2018-02-21T05:14:10.408Z,-1.98
2018-02-21T05:16:40.253Z,-2.02
2018-02-21T05:19:10.053Z,-2.04
2018-02-21T05:21:39.654Z,-1.96
2018-02-21T05:24:09.826Z,-2.01
2018-02-21T05:26:39.671Z,-2.02
2018-02-21T05:30:12.936Z,-2.18
2018-02-21T05:32:42.907Z,-2.19
2018-02-21T05:35:13.759Z,-2.22
2018-02-21T05:37:43.230Z,-2.28
2018-02-21T05:40:12.860Z,-2.17
2018-02-21T05:42:42.253Z,-2.29
2018-02-21T05:45:12.094Z,-2.10
2018-02-21T05:47:41.772Z,-1.88
2018-02-21T05:50:11.945Z,-1.87
2018-02-21T05:52:41.807Z,-1.83
2018-02-21T05:55:11.205Z,-1.88
2018-02-21T05:57:40.807Z,-2.13
2018-02-21T06:00:11.189Z,-2.18
2018-02-21T06:02:41.634Z,-2.35
2018-02-21T06:05:11.419Z,-2.28
2018-02-21T06:07:41.389Z,-2.34
2018-02-21T06:10:11.563Z,-2.34
2018-02-21T06:12:41.919Z,-2.42
2018-02-21T06:15:14.862Z,-2.33
2018-02-21T06:17:44.826Z,-2.33
2018-02-21T06:20:17.154Z,-2.31
2018-02-21T06:22:51.612Z,-2.56
2018-02-21T06:25:22.299Z,-2.37
2018-02-21T06:27:54.762Z,-2.30
2018-02-21T06:30:25.990Z,-2.51
2018-02-21T06:32:56.784Z,-2.29
2018-02-21T06:35:27.948Z,-2.29
2018-02-21T06:37:59.137Z,-2.43
2018-02-21T06:40:29.075Z,-2.30
2018-02-21T06:42:59.210Z,-2.32
2018-02-21T06:45:28.921Z,-2.15
2018-02-21T06:47:59.093Z,-2.10
2018-02-21T06:50:28.704Z,-1.99
2018-02-21T06:52:58.213Z,-2.36
2018-02-21T06:55:29.806Z,-2.57
2018-02-21T06:57:59.826Z,-2.28
2018-02-21T07:00:29.592Z,-2.16
2018-02-21T07:02:59.482Z,-2.13
2018-02-21T07:05:30.515Z,-2.02
2018-02-21T07:08:03.667Z,-2.56
2018-02-21T07:10:33.752Z,-1.93
2018-02-21T07:13:03.266Z,-1.98
2018-02-21T07:15:32.855Z,-2.01
2018-02-21T07:18:03.181Z,-2.08
2018-02-21T07:20:33.430Z,-1.86
2018-02-21T07:23:04.741Z,-1.81
2018-02-21T07:25:35.268Z,-1.69
2018-02-21T07:28:06.900Z,-1.32
2018-02-21T07:30:37.021Z,-1.28
2018-02-21T07:33:07.155Z,-1.50
2018-02-21T07:35:36.987Z,-1.37
2018-02-21T07:38:06.971Z,-1.32
2018-02-21T07:40:36.885Z,-1.45
2018-02-21T07:43:07.020Z,-1.49
2018-02-21T07:45:37.547Z,-1.32
2018-02-21T07:48:07.159Z,-1.19
2018-02-21T07:50:36.713Z,-1.05
2018-02-21T07:53:06.878Z,-1.49
2018-02-21T07:55:36.713Z,-1.03
2018-02-21T07:58:06.500Z,-0.95
2018-02-21T08:00:36.767Z,-1.06
2018-02-21T08:03:07.097Z,-0.80
2018-02-21T08:05:36.977Z,-1.02
2018-02-21T08:08:07.906Z,-0.70
2018-02-21T08:10:37.624Z,-0.78
2018-02-21T08:13:08.307Z,-0.78
2018-02-21T08:15:38.372Z,-0.57
2018-02-21T08:18:09.092Z,-0.56
2018-02-21T08:20:38.666Z,-0.46
2018-02-21T08:23:08.633Z,-0.40
2018-02-21T08:25:38.636Z,-0.35
2018-02-21T08:28:09.157Z,-0.37
2018-02-21T08:30:39.726Z,-0.08
2018-02-21T08:33:10.003Z,0.05
2018-02-21T08:35:39.561Z,0.11
2018-02-21T08:38:09.561Z,0.52
2018-02-21T08:40:39.210Z,0.59
2018-02-21T08:43:08.848Z,0.61
2018-02-21T08:45:39.444Z,0.45
2018-02-21T08:48:09.421Z,0.27
2018-02-21T08:50:39.373Z,0.61
2018-02-21T08:53:09.303Z,0.76
2018-02-21T08:55:38.778Z,0.66
2018-02-21T08:58:08.280Z,0.83
2018-02-21T09:00:38.376Z,1.22
2018-02-21T09:03:08.629Z,1.11
2018-02-21T09:05:38.114Z,0.96
2018-02-21T09:08:08.668Z,1.15
2018-02-21T09:10:38.250Z,1.56
2018-02-21T09:13:07.752Z,1.52
2018-02-21T09:15:37.551Z,2.07
2018-02-21T09:18:07.470Z,1.92
2018-02-21T09:20:37.460Z,1.95
2018-02-21T09:23:07.321Z,1.92
2018-02-21T09:25:37.026Z,2.28
2018-02-21T09:28:06.956Z,2.66
2018-02-21T09:30:36.752Z,2.78
2018-02-21T09:33:07.471Z,2.65
2018-02-21T09:35:39.271Z,2.43
2018-02-21T09:38:10.494Z,2.35
2018-02-21T09:40:40.194Z,2.15
2018-02-21T09:43:10.256Z,2.15
2018-02-21T09:45:40.186Z,2.18
2018-02-21T09:48:09.636Z,2.25
2018-02-21T09:50:39.800Z,2.47
2018-02-21T09:53:10.092Z,2.76
2018-02-21T09:55:39.528Z,2.75
2018-02-21T09:58:09.113Z,2.73
2018-02-21T10:00:38.982Z,2.63
2018-02-21T10:03:08.434Z,2.64
2018-02-21T10:05:38.240Z,2.91
2018-02-21T10:08:08.549Z,2.71
2018-02-21T10:10:38.078Z,2.91
2018-02-21T10:13:08.229Z,2.97
2018-02-21T10:15:38.266Z,2.99
2018-02-21T10:18:07.785Z,3.05
2018-02-21T10:20:37.402Z,3.28
2018-02-21T10:23:08.082Z,3.21
2018-02-21T10:25:37.784Z,3.11
2018-02-21T10:28:08.098Z,3.07
2018-02-21T10:30:37.860Z,3.36
2018-02-21T10:33:09.835Z,3.27
2018-02-21T10:35:39.303Z,3.40
2018-02-21T10:38:09.434Z,3.51
2018-02-21T10:40:39.080Z,3.64
2018-02-21T10:43:09.238Z,3.85
2018-02-21T10:45:39.338Z,3.61
2018-02-21T10:48:09.450Z,3.92
2018-02-21T10:50:39.229Z,3.90
2018-02-21T10:53:09.012Z,4.15
2018-02-21T10:55:38.832Z,4.56
2018-02-21T10:58:08.482Z,4.42
2018-02-21T11:00:42.715Z,4.47
2018-02-21T11:03:12.801Z,4.29
2018-02-21T11:05:42.387Z,4.12
2018-02-21T11:08:12.075Z,4.21
2018-02-21T11:10:42.412Z,4.23
2018-02-21T11:13:12.399Z,4.21
2018-02-21T11:15:41.912Z,4.45
2018-02-21T11:18:12.674Z,4.37
2018-02-21T11:20:42.474Z,4.58
2018-02-21T11:23:12.275Z,4.46
2018-02-21T11:25:43.061Z,4.30
2018-02-21T11:28:12.640Z,4.31
2018-02-21T11:30:42.099Z,4.71
2018-02-21T11:33:11.645Z,4.81
2018-02-21T11:35:41.543Z,4.54
2018-02-21T11:38:11.140Z,4.36
2018-02-21T11:40:42.652Z,4.79
2018-02-21T11:43:12.683Z,5.10
2018-02-21T11:45:42.199Z,5.19
2018-02-21T11:48:12.064Z,4.82
2018-02-21T11:50:41.584Z,4.17
2018-02-21T11:53:11.261Z,3.94
2018-02-21T11:55:41.858Z,3.78
2018-02-21T11:58:11.565Z,3.63
2018-02-21T12:00:41.088Z,3.61
2018-02-21T12:03:10.632Z,3.83
2018-02-21T12:05:40.057Z,4.17
2018-02-21T12:08:09.931Z,4.31
2018-02-21T12:10:40.351Z,4.47
2018-02-21T12:13:09.829Z,5.02
2018-02-21T12:15:39.358Z,4.92
2018-02-21T12:18:08.847Z,4.98
2018-02-21T12:20:38.265Z,5.14
2018-02-21T12:23:07.739Z,5.22
2018-02-21T12:25:38.486Z,5.23
2018-02-21T12:28:08.225Z,5.63
2018-02-21T12:30:37.874Z,5.84
2018-02-21T12:33:07.546Z,5.95
2018-02-21T12:35:37.625Z,5.92
2018-02-21T12:38:07.381Z,6.46
2018-02-21T12:40:41.136Z,6.90
2018-02-21T12:43:11.016Z,6.83
2018-02-21T12:45:40.889Z,6.41
2018-02-21T12:48:10.386Z,5.98
2018-02-21T12:50:40.170Z,5.19
2018-02-21T12:53:09.701Z,5.09
2018-02-21T12:55:39.149Z,5.17
2018-02-21T12:58:08.581Z,5.71
2018-02-21T13:00:38.022Z,6.10
2018-02-21T13:03:07.568Z,5.98
2018-02-21T13:05:37.380Z,6.30
2018-02-21T13:08:06.938Z,6.82
2018-02-21T13:10:36.527Z,6.69
2018-02-21T13:13:06.717Z,7.10
2018-02-21T13:15:36.290Z,7.31
2018-02-21T13:18:07.268Z,7.18
2018-02-21T13:20:37.177Z,6.84
2018-02-21T13:23:06.949Z,6.54
2018-02-21T13:25:38.604Z,6.19
2018-02-21T13:28:10.580Z,5.96
2018-02-21T13:30:40.208Z,6.07
2018-02-21T13:33:11.667Z,6.01
2018-02-21T13:35:41.274Z,6.36
2018-02-21T13:38:11.295Z,6.44
2018-02-21T13:40:40.783Z,6.64
2018-02-21T13:43:13.728Z,6.67
2018-02-21T13:45:45.288Z,6.47
2018-02-21T13:48:15.163Z,6.24
2018-02-21T13:50:45.139Z,6.07
2018-02-21T13:53:14.905Z,5.77
2018-02-21T13:55:44.648Z,5.43
2018-02-21T13:58:14.289Z,5.30
2018-02-21T14:00:44.305Z,5.35
2018-02-21T14:03:13.783Z,5.41
2018-02-21T14:05:43.498Z,5.32
2018-02-21T14:08:13.531Z,5.55
2018-02-21T14:10:42.959Z,5.40
2018-02-21T14:13:12.715Z,5.29
2018-02-21T14:15:42.669Z,5.29
2018-02-21T14:18:12.805Z,5.10
2018-02-21T14:20:42.738Z,5.02
2018-02-21T14:23:12.835Z,5.13
2018-02-21T14:25:42.388Z,5.31
2018-02-21T14:28:11.883Z,5.55
2018-02-21T14:30:42.079Z,5.76
2018-02-21T14:33:11.516Z,5.91
2018-02-21T14:35:41.025Z,5.66
2018-02-21T14:38:10.928Z,5.38
2018-02-21T14:40:40.478Z,5.12
2018-02-21T14:43:10.025Z,5.15
2018-02-21T14:45:39.865Z,4.90
2018-02-21T14:48:11.648Z,4.93
2018-02-21T14:50:41.168Z,4.94
2018-02-21T14:53:12.019Z,5.00
2018-02-21T14:55:41.566Z,5.10
2018-02-21T14:58:11.101Z,5.13
2018-02-21T15:00:40.966Z,4.96
2018-02-21T15:03:10.493Z,5.01
2018-02-21T15:05:39.995Z,5.29
2018-02-21T15:08:09.875Z,5.27
2018-02-21T15:10:40.294Z,5.18
2018-02-21T15:13:10.185Z,5.05
2018-02-21T15:15:40.069Z,4.97
2018-02-21T15:18:10.644Z,4.77
2018-02-21T15:20:40.120Z,4.68
2018-02-21T15:23:11.021Z,4.77
2018-02-21T15:25:40.913Z,4.75
2018-02-21T15:28:10.425Z,4.72
2018-02-21T15:30:40.013Z,4.84
2018-02-21T15:33:10.323Z,4.87
2018-02-21T15:35:40.091Z,4.79
2018-02-21T15:38:10.525Z,4.71
2018-02-21T15:40:40.456Z,4.68
2018-02-21T15:43:09.991Z,4.49
2018-02-21T15:45:39.465Z,4.55
2018-02-21T15:48:09.406Z,4.34
2018-02-21T15:50:38.966Z,4.27
2018-02-21T15:53:08.485Z,4.19
2018-02-21T15:55:37.949Z,4.25
2018-02-21T15:58:07.865Z,4.07
2018-02-21T16:00:38.111Z,4.23
2018-02-21T16:03:07.710Z,4.18
2018-02-21T16:05:37.297Z,3.97
2018-02-21T16:08:08.194Z,3.93
2018-02-21T16:10:37.698Z,4.06
2018-02-21T16:13:07.343Z,3.95
2018-02-21T16:15:36.863Z,3.95
2018-02-21T16:18:07.614Z,3.94
2018-02-21T16:20:37.520Z,4.07
2018-02-21T16:23:07.061Z,3.93
2018-02-21T16:25:36.542Z,3.93
2018-02-21T16:28:07.129Z,4.00
2018-02-21T16:30:36.763Z,3.84
2018-02-21T16:33:06.601Z,4.02
2018-02-21T16:35:36.038Z,4.10
2018-02-21T16:38:05.525Z,4.22
2018-02-21T16:40:35.040Z,3.99
2018-02-21T16:43:04.726Z,3.97
2018-02-21T16:45:34.809Z,3.98
2018-02-21T16:48:04.953Z,3.91
2018-02-21T16:50:35.138Z,4.03
2018-02-21T16:53:04.820Z,3.98
2018-02-21T16:55:34.899Z,3.94
2018-02-21T16:58:04.567Z,3.96
2018-02-21T17:00:34.704Z,4.02
2018-02-21T17:03:05.035Z,3.88
2018-02-21T17:05:34.798Z,3.80
2018-02-21T17:08:04.623Z,3.83
2018-02-21T17:10:35.193Z,3.80
2018-02-21T17:13:05.136Z,3.86
2018-02-21T17:15:34.570Z,3.81
2018-02-21T17:18:04.733Z,3.89
2018-02-21T17:20:34.222Z,3.94
2018-02-21T17:23:04.507Z,3.93
2018-02-21T17:25:34.845Z,3.81
2018-02-21T17:28:04.630Z,3.60
2018-02-21T17:30:34.075Z,3.60
2018-02-21T17:33:03.627Z,3.77
2018-02-21T17:35:33.117Z,3.63
2018-02-21T17:38:04.702Z,3.67
2018-02-21T17:40:35.040Z,3.68
2018-02-21T17:43:04.580Z,3.59
2018-02-21T17:45:38.128Z,3.75
2018-02-21T17:48:19.841Z,3.54
2018-02-21T17:50:53.282Z,3.53
2018-02-21T17:53:25.835Z,3.59
2018-02-21T17:55:55.641Z,3.56
2018-02-21T17:58:26.046Z,3.64
2018-02-21T18:00:56.358Z,3.72
2018-02-21T18:03:26.415Z,3.63
2018-02-21T18:05:56.659Z,3.55
2018-02-21T18:08:26.733Z,3.75
2018-02-21T18:10:56.328Z,3.64
2018-02-21T18:13:27.137Z,3.78
2018-02-21T18:15:56.891Z,3.75
2018-02-21T18:18:26.778Z,3.74
2018-02-21T18:20:56.588Z,3.67
2018-02-21T18:23:26.704Z,3.72
2018-02-21T18:25:56.483Z,3.73
2018-02-21T18:28:26.785Z,3.15
2018-02-21T18:30:56.562Z,3.38
2018-02-21T18:33:26.925Z,3.26
2018-02-21T18:35:56.613Z,3.11
2018-02-21T18:38:26.174Z,3.00
2018-02-21T18:40:55.735Z,2.96
2018-02-21T18:43:25.302Z,2.86
2018-02-21T18:45:54.771Z,2.77
2018-02-21T18:48:24.538Z,2.59
2018-02-21T18:50:54.127Z,2.59
2018-02-21T18:53:23.681Z,2.50
2018-02-21T18:55:54.910Z,2.43
2018-02-21T18:58:24.781Z,2.25
2018-02-21T19:00:54.198Z,2.14
2018-02-21T19:03:24.354Z,2.22
2018-02-21T19:05:54.362Z,2.20
2018-02-21T19:08:24.236Z,2.08
2018-02-21T19:10:54.350Z,1.99
2018-02-21T19:13:23.984Z,2.07
2018-02-21T19:15:53.683Z,2.03
2018-02-21T19:18:23.484Z,1.99
2018-02-21T19:20:53.010Z,1.99
2018-02-21T19:23:22.884Z,1.87
2018-02-21T19:25:52.503Z,1.80
2018-02-21T19:28:22.367Z,1.87
2018-02-21T19:30:53.525Z,1.90
2018-02-21T19:33:23.430Z,1.81
2018-02-21T19:35:52.860Z,1.83
2018-02-21T19:38:22.328Z,1.80
2018-02-21T19:40:51.996Z,1.85
2018-02-21T19:43:21.983Z,1.65
2018-02-21T19:45:51.483Z,1.80
2018-02-21T19:48:21.410Z,1.82
2018-02-21T19:50:50.937Z,1.79
2018-02-21T19:53:20.792Z,1.77
2018-02-21T19:55:50.354Z,1.61
2018-02-21T19:58:19.916Z,1.70
2018-02-21T20:00:49.656Z,1.71
2018-02-21T20:03:19.286Z,1.70
2018-02-21T20:05:49.036Z,1.65
2018-02-21T20:08:19.079Z,1.60
2018-02-21T20:10:48.994Z,1.62
2018-02-21T20:13:18.532Z,1.57
2018-02-21T20:15:48.353Z,1.47
2018-02-21T20:18:17.906Z,1.50
2018-02-21T20:20:47.503Z,1.43
2018-02-21T20:23:17.639Z,1.38
2018-02-21T20:25:47.345Z,1.43
2018-02-21T20:28:17.135Z,1.32
2018-02-21T20:30:47.199Z,1.34
2018-02-21T20:33:16.871Z,1.36
2018-02-21T20:35:46.710Z,1.27
2018-02-21T20:38:16.960Z,1.22
2018-02-21T20:40:46.443Z,1.27
2018-02-21T20:43:15.908Z,1.20
2018-02-21T20:45:45.840Z,1.28
2018-02-21T20:48:15.556Z,1.41
2018-02-21T20:50:45.314Z,1.57
2018-02-21T20:53:15.166Z,1.71
2018-02-21T20:55:44.665Z,1.85
2018-02-21T20:58:14.191Z,1.90
2018-02-21T21:00:44.269Z,1.98
2018-02-21T21:03:15.169Z,1.69
2018-02-21T21:05:44.880Z,2.04
2018-02-21T21:08:14.792Z,2.04
2018-02-21T21:10:44.380Z,2.12
2018-02-21T21:13:13.880Z,2.32
2018-02-21T21:15:43.811Z,2.32
2018-02-21T21:18:13.405Z,2.32
2018-02-21T21:20:43.015Z,2.34
2018-02-21T21:23:13.825Z,2.38
2018-02-21T21:25:43.802Z,2.33
2018-02-21T21:28:13.513Z,2.26
2018-02-21T21:30:43.463Z,2.20
2018-02-21T21:33:13.502Z,2.07
2018-02-21T21:35:43.431Z,2.13
2018-02-21T21:38:13.779Z,2.06
2018-02-21T21:40:43.414Z,1.97
2018-02-21T21:43:14.106Z,1.96
2018-02-21T21:45:44.287Z,1.75
2018-02-21T21:48:13.901Z,1.63
2018-02-21T21:50:43.344Z,1.58
2018-02-21T21:53:13.389Z,1.50
2018-02-21T21:55:42.941Z,1.49
2018-02-21T21:58:12.429Z,1.40
2018-02-21T22:00:42.476Z,1.42
2018-02-21T22:03:12.726Z,1.29
2018-02-21T22:05:42.616Z,1.34
2018-02-21T22:08:12.523Z,1.28
2018-02-21T22:10:42.054Z,1.41
2018-02-21T22:13:11.624Z,1.25
2018-02-21T22:15:41.633Z,1.34
2018-02-21T22:18:11.515Z,1.18
2018-02-21T22:20:40.986Z,1.19
2018-02-21T22:23:11.214Z,1.06
2018-02-21T22:25:41.132Z,1.06
2018-02-21T22:28:10.986Z,0.92
2018-02-21T22:30:41.190Z,1.06
2018-02-21T22:33:11.113Z,1.06
2018-02-21T22:35:40.883Z,0.95
2018-02-21T22:38:11.234Z,0.82
2018-02-21T22:40:41.048Z,0.84
2018-02-21T22:43:10.525Z,0.81
2018-02-21T22:45:40.433Z,0.78
2018-02-21T22:48:10.965Z,0.72
2018-02-21T22:50:40.698Z,0.65
2018-02-21T22:53:11.423Z,0.59
2018-02-21T22:55:41.274Z,0.66
2018-02-21T22:58:11.181Z,0.60
2018-02-21T23:00:41.104Z,0.64
2018-02-21T23:03:11.053Z,0.57
2018-02-21T23:05:41.098Z,0.59
2018-02-21T23:08:10.859Z,0.57
2018-02-21T23:10:40.593Z,0.54
2018-02-21T23:13:10.822Z,0.46
2018-02-21T23:15:40.757Z,0.51
2018-02-21T23:18:10.630Z,0.47
2018-02-21T23:20:40.187Z,0.47
2018-02-21T23:23:10.388Z,0.50
2018-02-21T23:25:40.348Z,0.47
2018-02-21T23:28:10.182Z,0.40
2018-02-21T23:30:40.622Z,0.40
2018-02-21T23:33:11.108Z,0.41
2018-02-21T23:35:41.013Z,0.38
2018-02-21T23:38:11.504Z,0.36
2018-02-21T23:40:42.037Z,0.30
2018-02-21T23:43:11.729Z,0.32
2018-02-21T23:45:42.077Z,0.30
2018-02-21T23:48:12.452Z,0.28
2018-02-21T23:50:42.142Z,0.21
2018-02-21T23:53:12.651Z,0.21
2018-02-21T23:55:42.769Z,0.15
2018-02-21T23:58:12.408Z,0.12
